Shellfish — WDI4328 — position and weather

sailwx.info

Track history (hours):
 
Tides and Currents Weather Stations Pressure Air Temp Water Temp Dewpoint Dewpoint Depression Visibility Wind Speed Wind Dir Waves Ship Positions

Shellfish

Owner: JR DOOLEY INC, HALF MOON BAY, CA. More information available from US FCC via Universal Licensing System and Coast Guard Vessel Documentation Center.

Last reported at 2018-Feb-08 09:00 UTC. Time now 2018-Feb-23 22:26 UTC.
Position N 44°01' W 124°31'.
Warning: this ship's position is 15 days out of date.

Length 31 m; draft 3 m.

Type: Fishing. MMSI: 366950140.

Date/timePositionNaut miles runAvg speedWind from/ knotsBaromVisibWave heightAir tempDewpointWater temp
2018-Feb-08 09:00N 44°01' W 124°31'5 1.3
2018-Feb-08 05:30N 44°05' W 124°31'1 0.7
2018-Feb-08 03:30N 44°07' W 124°31'1 0.7
2018-Feb-08 02:30N 44°06' W 124°31'1 1.4
2018-Feb-08 01:29N 44°04' W 124°30'1 1.6
2018-Feb-08 01:00N 44°04' W 124°30'1 1.6
2018-Feb-08 00:27N 44°03' W 124°29'3 2.9
2018-Feb-07 23:24N 44°06' W 124°29'1 2.3
2018-Feb-07 23:00N 44°07' W 124°28'1 1.8
2018-Feb-07 22:25N 44°06' W 124°28'1 2.3
2018-Feb-07 21:52N 44°04' W 124°28'  
2018-Feb-05 09:50N 44°34' W 124°09'  
Track history (hours):
 
Tides and Currents Weather Stations Pressure Air Temp Water Temp Dewpoint Dewpoint Depression Visibility Wind Speed Wind Dir Waves Ship Positions

Shellfish

Owner: JR DOOLEY INC, HALF MOON BAY, CA. More information available from US FCC via Universal Licensing System and Coast Guard Vessel Documentation Center.

Last reported at 2018-Feb-08 09:00 UTC. Time now 2018-Feb-23 22:26 UTC.
Position N 44°01' W 124°31'.
Warning: this ship's position is 15 days out of date.

Length 31 m; draft 3 m.

Type: Fishing. MMSI: 366950140.

Date/timePositionNaut miles runAvg speedWind from/ knotsBaromVisibWave heightAir tempDewpointWater temp
2018-Feb-08 09:00N 44°01' W 124°31'5 1.3
2018-Feb-08 05:30N 44°05' W 124°31'1 0.7
2018-Feb-08 03:30N 44°07' W 124°31'1 0.7
2018-Feb-08 02:30N 44°06' W 124°31'1 1.4
2018-Feb-08 01:29N 44°04' W 124°30'1 1.6
2018-Feb-08 01:00N 44°04' W 124°30'1 1.6
2018-Feb-08 00:27N 44°03' W 124°29'3 2.9
2018-Feb-07 23:24N 44°06' W 124°29'1 2.3
2018-Feb-07 23:00N 44°07' W 124°28'1 1.8
2018-Feb-07 22:25N 44°06' W 124°28'1 2.3
2018-Feb-07 21:52N 44°04' W 124°28'  
2018-Feb-05 09:50N 44°34' W 124°09'  

Dump ship's entire track history